createdAt,value
2017-10-04T00:00:03.495Z,99.90
2017-10-04T00:01:06.017Z,99.90
2017-10-04T00:02:08.500Z,99.90
2017-10-04T00:03:11.742Z,99.90
2017-10-04T00:04:14.273Z,99.90
2017-10-04T00:05:16.855Z,99.90
2017-10-04T00:06:19.461Z,99.90
2017-10-04T00:07:22.076Z,99.90
2017-10-04T00:08:25.438Z,99.90
2017-10-04T00:09:28.736Z,99.90
2017-10-04T00:10:31.992Z,99.90
2017-10-04T00:11:36.817Z,99.90
2017-10-04T00:12:39.300Z,99.90
2017-10-04T00:13:42.548Z,99.90
2017-10-04T00:14:45.030Z,99.90
2017-10-04T00:15:48.320Z,99.90
2017-10-04T00:16:51.566Z,99.90
2017-10-04T00:17:54.059Z,99.90
2017-10-04T00:18:56.565Z,99.90
2017-10-04T00:19:59.182Z,99.90
2017-10-04T00:21:01.675Z,99.90
2017-10-04T00:22:04.930Z,99.90
2017-10-04T00:23:07.440Z,99.90
2017-10-04T00:24:09.940Z,99.90
2017-10-04T00:25:12.428Z,99.90
2017-10-04T00:26:14.910Z,99.90
2017-10-04T00:27:18.184Z,99.90
2017-10-04T00:28:22.670Z,99.90
2017-10-04T00:29:25.140Z,99.90
2017-10-04T00:30:27.662Z,99.90
2017-10-04T00:31:30.159Z,99.90
2017-10-04T00:32:33.783Z,99.90
2017-10-04T00:33:36.264Z,99.90
2017-10-04T00:34:39.554Z,99.90
2017-10-04T00:35:42.809Z,99.90
2017-10-04T00:36:45.276Z,99.90
2017-10-04T00:37:47.786Z,99.90
2017-10-04T00:38:50.327Z,99.90
2017-10-04T00:39:53.584Z,99.90
2017-10-04T00:40:56.054Z,99.90
2017-10-04T00:41:58.680Z,99.90
2017-10-04T00:43:01.194Z,99.90
2017-10-04T00:44:03.754Z,99.90
2017-10-04T00:45:07.298Z,99.90
2017-10-04T00:46:09.791Z,99.90
2017-10-04T00:47:12.267Z,99.90
2017-10-04T00:48:14.763Z,99.90
2017-10-04T00:49:18.049Z,99.90
2017-10-04T00:50:21.347Z,99.90
2017-10-04T00:51:23.866Z,99.90
2017-10-04T00:52:26.367Z,99.90
2017-10-04T00:53:29.619Z,99.90
2017-10-04T00:54:32.231Z,99.90
2017-10-04T00:55:34.744Z,99.90
2017-10-04T00:56:37.214Z,99.90
2017-10-04T00:57:39.699Z,99.90
2017-10-04T00:58:42.942Z,99.90
2017-10-04T00:59:45.448Z,99.90
2017-10-04T01:00:48.699Z,99.90
2017-10-04T01:01:51.178Z,99.90
2017-10-04T01:02:53.680Z,99.90
2017-10-04T01:03:56.210Z,99.90
2017-10-04T01:05:00.213Z,99.90
2017-10-04T01:06:02.699Z,99.90
2017-10-04T01:07:06.382Z,99.90
2017-10-04T01:08:10.251Z,99.90
2017-10-04T01:09:12.806Z,99.90
2017-10-04T01:10:15.304Z,99.90
2017-10-04T01:11:18.628Z,99.90
2017-10-04T01:12:21.122Z,99.90
2017-10-04T01:13:23.623Z,99.90
2017-10-04T01:14:26.155Z,99.90
2017-10-04T01:15:28.635Z,99.90
2017-10-04T01:16:31.241Z,99.90
2017-10-04T01:17:34.479Z,99.90
2017-10-04T01:18:36.961Z,99.90
2017-10-04T01:19:39.470Z,99.90
2017-10-04T01:20:41.988Z,99.90
2017-10-04T01:21:44.564Z,99.90
2017-10-04T01:22:47.061Z,99.90
2017-10-04T01:23:50.221Z,99.90
2017-10-04T01:24:53.460Z,99.90
2017-10-04T01:25:55.998Z,99.90
2017-10-04T01:26:58.536Z,99.90
2017-10-04T01:28:01.782Z,99.90
2017-10-04T01:29:04.272Z,99.90
2017-10-04T01:30:06.759Z,99.90
2017-10-04T01:31:10.022Z,99.90
2017-10-04T01:32:13.307Z,99.90
2017-10-04T01:33:15.808Z,99.90
2017-10-04T01:34:18.324Z,99.90
2017-10-04T01:35:20.875Z,99.90
2017-10-04T01:36:23.367Z,99.90
2017-10-04T01:37:25.943Z,99.90
2017-10-04T01:38:28.538Z,99.90
2017-10-04T01:39:31.063Z,99.90
2017-10-04T01:40:33.548Z,99.90
2017-10-04T01:41:36.809Z,99.90
2017-10-04T01:42:39.422Z,99.90
2017-10-04T01:43:41.994Z,99.90
2017-10-04T01:44:44.548Z,99.90
2017-10-04T01:45:47.094Z,99.90
2017-10-04T01:46:50.355Z,99.90
2017-10-04T01:47:52.872Z,99.90
2017-10-04T01:48:55.353Z,99.90
2017-10-04T01:49:58.871Z,99.90
2017-10-04T01:51:01.395Z,99.90
2017-10-04T01:52:03.958Z,99.90
2017-10-04T01:53:06.525Z,99.90
2017-10-04T01:54:09.045Z,99.90
2017-10-04T01:55:11.521Z,99.90
2017-10-04T01:56:15.518Z,99.90
2017-10-04T01:57:18.772Z,99.90
2017-10-04T01:58:21.259Z,99.90
2017-10-04T01:59:24.312Z,99.90
2017-10-04T02:00:26.813Z,99.90
2017-10-04T02:01:29.766Z,99.90
2017-10-04T02:02:32.348Z,99.90
2017-10-04T02:03:34.823Z,99.90
2017-10-04T02:04:38.062Z,99.90
2017-10-04T02:05:40.556Z,99.90
2017-10-04T02:06:43.074Z,99.90
2017-10-04T02:07:45.566Z,99.90
2017-10-04T02:08:48.235Z,99.90
2017-10-04T02:09:51.489Z,99.90
2017-10-04T02:10:54.055Z,99.90
2017-10-04T02:11:56.557Z,99.90
2017-10-04T02:12:59.043Z,99.90
2017-10-04T02:14:01.551Z,99.90
2017-10-04T02:15:05.069Z,99.90
2017-10-04T02:16:07.608Z,99.90
2017-10-04T02:17:10.282Z,99.90
2017-10-04T02:18:12.764Z,99.90
2017-10-04T02:19:15.260Z,99.90
2017-10-04T02:20:17.746Z,99.90
2017-10-04T02:21:21.196Z,99.90
2017-10-04T02:22:23.772Z,99.90
2017-10-04T02:23:26.251Z,99.90
2017-10-04T02:24:29.667Z,99.90
2017-10-04T02:25:32.911Z,99.90
2017-10-04T02:26:35.558Z,99.90
2017-10-04T02:27:38.064Z,99.90
2017-10-04T02:28:40.671Z,99.90
2017-10-04T02:29:43.166Z,99.90
2017-10-04T02:30:45.651Z,99.90
2017-10-04T02:31:48.171Z,99.90
2017-10-04T02:32:51.175Z,99.90
2017-10-04T02:33:53.672Z,99.90
2017-10-04T02:35:00.734Z,99.90
2017-10-04T02:36:03.233Z,99.90
2017-10-04T02:37:06.474Z,99.90
2017-10-04T02:38:08.962Z,99.90
2017-10-04T02:39:12.258Z,99.90
2017-10-04T02:40:15.567Z,99.90
2017-10-04T02:41:18.063Z,99.90
2017-10-04T02:42:20.593Z,99.90
2017-10-04T02:43:23.170Z,99.90
2017-10-04T02:44:25.663Z,99.90
2017-10-04T02:45:28.153Z,99.90
2017-10-04T02:46:30.643Z,99.90
2017-10-04T02:47:33.916Z,99.90
2017-10-04T02:48:37.535Z,99.90
2017-10-04T02:49:40.111Z,99.90
2017-10-04T02:50:42.600Z,99.90
2017-10-04T02:51:45.121Z,99.90
2017-10-04T02:52:48.354Z,99.90
2017-10-04T02:53:50.840Z,99.90
2017-10-04T02:54:53.957Z,99.90
2017-10-04T02:55:56.436Z,99.90
2017-10-04T02:56:58.932Z,99.90
2017-10-04T02:58:01.707Z,99.90
2017-10-04T02:59:05.147Z,99.90
2017-10-04T03:00:07.650Z,99.90
2017-10-04T03:01:10.176Z,99.90
2017-10-04T03:02:12.747Z,99.90
2017-10-04T03:03:15.232Z,99.90
2017-10-04T03:04:17.747Z,99.90
2017-10-04T03:05:20.217Z,99.90
2017-10-04T03:06:23.651Z,99.90
2017-10-04T03:07:26.184Z,99.90
2017-10-04T03:08:29.432Z,99.90
2017-10-04T03:09:33.737Z,99.90
2017-10-04T03:10:36.251Z,99.90
2017-10-04T03:11:38.847Z,99.90
2017-10-04T03:12:41.366Z,99.90
2017-10-04T03:13:44.667Z,99.90
2017-10-04T03:14:47.142Z,99.90
2017-10-04T03:15:50.096Z,99.90
2017-10-04T03:16:53.362Z,99.90
2017-10-04T03:17:56.805Z,99.90
2017-10-04T03:18:59.350Z,99.90
2017-10-04T03:20:01.859Z,99.90
2017-10-04T03:21:04.466Z,99.90
2017-10-04T03:22:07.745Z,99.90
2017-10-04T03:23:11.069Z,99.90
2017-10-04T03:24:13.571Z,99.90
2017-10-04T03:25:16.152Z,99.90
2017-10-04T03:26:19.393Z,99.90
2017-10-04T03:27:21.899Z,99.90
2017-10-04T03:28:25.209Z,99.90
2017-10-04T03:29:27.723Z,99.90
2017-10-04T03:30:30.245Z,99.90
2017-10-04T03:31:32.825Z,99.90
2017-10-04T03:32:35.312Z,99.90
2017-10-04T03:33:37.839Z,99.90
2017-10-04T03:34:40.475Z,99.90
2017-10-04T03:35:43.019Z,99.90
2017-10-04T03:36:46.581Z,99.90
2017-10-04T03:37:49.109Z,99.90
2017-10-04T03:38:52.351Z,99.90
2017-10-04T03:39:54.879Z,99.90
2017-10-04T03:40:58.403Z,99.90
2017-10-04T03:42:00.913Z,99.90
2017-10-04T03:43:04.216Z,99.90
2017-10-04T03:44:06.705Z,99.90
2017-10-04T03:45:09.302Z,99.90
2017-10-04T03:46:11.792Z,99.90
2017-10-04T03:47:15.043Z,99.90
2017-10-04T03:48:17.544Z,99.90
2017-10-04T03:49:20.797Z,99.90
2017-10-04T03:50:23.320Z,99.90
2017-10-04T03:51:25.820Z,99.90
2017-10-04T03:52:28.323Z,99.90
2017-10-04T03:53:31.729Z,99.90
2017-10-04T03:54:34.215Z,99.90
2017-10-04T03:55:38.118Z,99.90
2017-10-04T03:56:40.620Z,99.90
2017-10-04T03:57:44.104Z,99.90
2017-10-04T03:58:46.593Z,99.90
2017-10-04T03:59:49.861Z,99.90
2017-10-04T04:00:52.337Z,99.90
2017-10-04T04:01:55.675Z,99.90
2017-10-04T04:02:58.176Z,99.90
2017-10-04T04:04:00.662Z,99.90
2017-10-04T04:05:03.910Z,99.90
2017-10-04T04:06:07.363Z,99.90
2017-10-04T04:07:09.881Z,99.90
2017-10-04T04:08:13.195Z,99.90
2017-10-04T04:09:15.686Z,99.90
2017-10-04T04:10:18.259Z,99.90
2017-10-04T04:11:20.743Z,99.90
2017-10-04T04:12:23.237Z,99.90
2017-10-04T04:13:26.620Z,99.90
2017-10-04T04:14:29.111Z,99.90
2017-10-04T04:15:31.598Z,99.90
2017-10-04T04:16:34.091Z,99.90
2017-10-04T04:17:36.605Z,99.90
2017-10-04T04:18:39.345Z,99.90
2017-10-04T04:19:41.950Z,99.90
2017-10-04T04:20:45.870Z,99.90
2017-10-04T04:21:48.467Z,99.90
2017-10-04T04:22:57.228Z,99.90
2017-10-04T04:23:59.725Z,99.90
2017-10-04T04:25:02.198Z,99.90
2017-10-04T04:26:04.718Z,99.90
2017-10-04T04:27:07.224Z,99.90
2017-10-04T04:28:09.707Z,99.90
2017-10-04T04:29:12.203Z,99.90
2017-10-04T04:30:15.550Z,99.90
2017-10-04T04:31:18.072Z,99.90
2017-10-04T04:32:20.555Z,99.90
2017-10-04T04:33:23.046Z,99.90
2017-10-04T04:34:25.620Z,99.90
2017-10-04T04:35:29.242Z,99.90
2017-10-04T04:36:32.495Z,99.90
2017-10-04T04:37:34.966Z,99.90
2017-10-04T04:38:49.528Z,99.90
2017-10-04T04:39:52.836Z,99.90
2017-10-04T04:40:56.698Z,99.90
2017-10-04T04:41:59.222Z,99.90
2017-10-04T04:43:01.727Z,99.90
2017-10-04T04:44:04.271Z,99.90
2017-10-04T04:45:06.800Z,99.90
2017-10-04T04:46:09.372Z,99.90
2017-10-04T04:47:12.047Z,99.90
2017-10-04T04:48:14.640Z,99.90
2017-10-04T04:49:17.139Z,99.90
2017-10-04T04:50:20.400Z,99.90
2017-10-04T04:51:22.878Z,99.90
2017-10-04T04:52:25.367Z,99.90
2017-10-04T04:53:28.631Z,99.90
2017-10-04T04:54:31.898Z,99.90
2017-10-04T04:55:34.414Z,99.90
2017-10-04T04:56:37.057Z,99.90
2017-10-04T04:57:40.336Z,99.90
2017-10-04T04:58:43.605Z,99.90
2017-10-04T04:59:46.193Z,99.90
2017-10-04T05:00:49.509Z,99.90
2017-10-04T05:01:52.013Z,99.90
2017-10-04T05:02:54.492Z,99.90
2017-10-04T05:03:56.990Z,99.90
2017-10-04T05:04:59.483Z,99.90
2017-10-04T05:06:01.997Z,99.90
2017-10-04T05:07:05.251Z,99.90
2017-10-04T05:08:07.746Z,99.90
2017-10-04T05:09:11.048Z,99.90
2017-10-04T05:10:14.282Z,99.90
2017-10-04T05:11:16.777Z,99.90
2017-10-04T05:12:20.060Z,99.90
2017-10-04T05:13:23.322Z,99.90
2017-10-04T05:14:25.813Z,99.90
2017-10-04T05:15:28.308Z,99.90
2017-10-04T05:16:31.383Z,99.90
2017-10-04T05:17:33.959Z,99.90
2017-10-04T05:18:37.480Z,99.90
2017-10-04T05:19:39.986Z,99.90
2017-10-04T05:20:43.368Z,99.90
2017-10-04T05:21:46.628Z,99.90
2017-10-04T05:22:49.136Z,99.90
2017-10-04T05:23:52.384Z,99.90
2017-10-04T05:24:54.864Z,99.90
2017-10-04T05:25:58.121Z,99.90
2017-10-04T05:27:01.702Z,99.90
2017-10-04T05:28:04.334Z,99.90
2017-10-04T05:29:06.843Z,99.90
2017-10-04T05:30:09.464Z,99.90
2017-10-04T05:31:11.970Z,99.90
2017-10-04T05:32:14.498Z,99.90
2017-10-04T05:33:17.066Z,99.90
2017-10-04T05:34:19.634Z,99.90
2017-10-04T05:35:22.138Z,99.90
2017-10-04T05:36:24.698Z,99.90
2017-10-04T05:37:27.172Z,99.90
2017-10-04T05:38:30.050Z,99.90
2017-10-04T05:39:32.675Z,99.90
2017-10-04T05:40:35.170Z,99.90
2017-10-04T05:41:37.656Z,99.90
2017-10-04T05:42:40.143Z,99.90
2017-10-04T05:43:44.565Z,99.90
2017-10-04T05:44:47.811Z,99.90
2017-10-04T05:45:50.299Z,99.90
2017-10-04T05:46:54.333Z,99.90
2017-10-04T05:47:56.835Z,99.90
2017-10-04T05:48:59.446Z,99.90
2017-10-04T05:50:06.448Z,99.90
2017-10-04T05:51:08.990Z,99.90
2017-10-04T05:52:11.485Z,99.90
2017-10-04T05:53:13.973Z,99.90
2017-10-04T05:54:16.511Z,99.90
2017-10-04T05:55:18.999Z,99.90
2017-10-04T05:56:21.508Z,99.90
2017-10-04T05:57:24.752Z,99.90
2017-10-04T05:58:27.245Z,99.90
2017-10-04T05:59:30.769Z,99.90
2017-10-04T06:00:33.737Z,99.90
2017-10-04T06:01:36.285Z,99.90
2017-10-04T06:02:38.845Z,99.90
2017-10-04T06:03:42.117Z,99.90
2017-10-04T06:04:44.595Z,99.90
2017-10-04T06:05:47.855Z,99.90
2017-10-04T06:06:50.365Z,99.90
2017-10-04T06:07:52.939Z,99.90
2017-10-04T06:08:55.537Z,99.90
2017-10-04T06:09:58.035Z,99.90
2017-10-04T06:11:00.517Z,99.90
2017-10-04T06:12:03.771Z,99.90
2017-10-04T06:13:06.280Z,99.90
2017-10-04T06:14:08.867Z,99.90
2017-10-04T06:15:11.676Z,99.90
2017-10-04T06:16:14.190Z,99.90
2017-10-04T06:17:17.031Z,99.90
2017-10-04T06:18:19.726Z,99.90
2017-10-04T06:19:22.410Z,99.90
2017-10-04T06:20:25.393Z,99.90
2017-10-04T06:21:29.199Z,99.90
2017-10-04T06:22:31.839Z,99.90
2017-10-04T06:23:34.576Z,99.90
2017-10-04T06:24:37.061Z,99.90
2017-10-04T06:25:40.527Z,99.90
2017-10-04T06:26:43.239Z,99.90
2017-10-04T06:27:46.932Z,99.90
2017-10-04T06:28:49.422Z,99.90
2017-10-04T06:29:52.139Z,99.90
2017-10-04T06:30:54.633Z,99.90
2017-10-04T06:31:58.423Z,99.90
2017-10-04T06:33:00.908Z,99.90
2017-10-04T06:34:03.974Z,99.90
2017-10-04T06:35:06.472Z,99.90
2017-10-04T06:36:09.060Z,99.90
2017-10-04T06:37:11.535Z,99.90
2017-10-04T06:38:14.050Z,99.90
2017-10-04T06:39:16.706Z,99.90
2017-10-04T06:40:23.431Z,99.90
2017-10-04T06:41:25.907Z,99.90
2017-10-04T06:42:29.482Z,99.90
2017-10-04T06:43:32.002Z,99.90
2017-10-04T06:44:34.599Z,99.20
2017-10-04T06:45:37.206Z,99.40
2017-10-04T06:46:39.779Z,99.30
2017-10-04T06:47:43.145Z,98.10
2017-10-04T06:48:46.578Z,98.40
2017-10-04T06:49:49.250Z,98.40
2017-10-04T06:50:52.988Z,98.80
2017-10-04T06:51:55.720Z,98.30
2017-10-04T06:52:58.235Z,97.70
2017-10-04T06:54:01.518Z,98.20
2017-10-04T06:55:04.045Z,98.20
2017-10-04T06:56:06.531Z,97.70
2017-10-04T06:57:09.194Z,96.80
2017-10-04T06:58:11.676Z,96.00
2017-10-04T06:59:14.174Z,94.60
2017-10-04T07:00:16.677Z,93.80
2017-10-04T07:01:19.162Z,92.50
2017-10-04T07:02:21.778Z,92.00
2017-10-04T07:03:24.594Z,92.00
2017-10-04T07:04:27.122Z,91.30
2017-10-04T07:05:29.960Z,90.80
2017-10-04T07:06:33.277Z,86.50
2017-10-04T07:07:35.980Z,86.40
2017-10-04T07:08:38.443Z,83.40
2017-10-04T07:09:41.302Z,83.10
2017-10-04T07:10:43.963Z,83.30
2017-10-04T07:11:46.505Z,87.80
2017-10-04T07:12:49.759Z,90.20
2017-10-04T07:13:52.275Z,90.20
2017-10-04T07:15:08.852Z,90.80
2017-10-04T07:16:23.707Z,91.10
2017-10-04T07:17:37.778Z,92.20
2017-10-04T07:18:48.504Z,93.10
2017-10-04T07:19:51.007Z,93.40
2017-10-04T07:20:53.508Z,93.30
2017-10-04T07:21:56.047Z,92.60
2017-10-04T07:22:58.575Z,93.80
2017-10-04T07:24:01.148Z,93.70
2017-10-04T07:25:03.623Z,93.50
2017-10-04T07:26:06.106Z,93.80
2017-10-04T07:27:08.616Z,94.60
2017-10-04T07:28:11.972Z,93.50
2017-10-04T07:29:14.458Z,93.50
2017-10-04T07:30:17.420Z,94.20
2017-10-04T07:31:20.060Z,94.40
2017-10-04T07:32:22.571Z,93.80
2017-10-04T07:33:25.051Z,93.90
2017-10-04T07:34:28.309Z,93.50
2017-10-04T07:35:31.232Z,93.40
2017-10-04T07:36:33.861Z,93.70
2017-10-04T07:37:37.222Z,93.80
2017-10-04T07:38:40.151Z,93.60
2017-10-04T07:39:43.039Z,93.40
2017-10-04T07:40:45.588Z,93.20
2017-10-04T07:41:52.110Z,93.10
2017-10-04T07:42:54.721Z,93.00
2017-10-04T07:43:57.225Z,91.70
2017-10-04T07:44:59.863Z,92.30
2017-10-04T07:46:02.356Z,92.30
2017-10-04T07:47:04.832Z,93.30
2017-10-04T07:48:07.314Z,93.00
2017-10-04T07:49:09.787Z,93.30
2017-10-04T07:50:13.065Z,92.90
2017-10-04T07:51:15.567Z,92.90
2017-10-04T07:52:18.050Z,93.80
2017-10-04T07:53:20.596Z,93.50
2017-10-04T07:54:23.082Z,93.90
2017-10-04T07:55:25.630Z,94.00
2017-10-04T07:56:28.130Z,94.00
2017-10-04T07:57:30.640Z,94.20
2017-10-04T07:58:33.890Z,94.30
2017-10-04T07:59:36.384Z,94.30
2017-10-04T08:00:38.989Z,93.70
2017-10-04T08:01:41.476Z,94.40
2017-10-04T08:02:43.979Z,94.30
2017-10-04T08:03:46.458Z,94.40
2017-10-04T08:04:49.758Z,94.50
2017-10-04T08:05:52.295Z,94.40
2017-10-04T08:06:54.772Z,94.20
2017-10-04T08:07:58.176Z,94.80
2017-10-04T08:09:00.679Z,94.80
2017-10-04T08:10:03.172Z,95.00
2017-10-04T08:11:05.688Z,94.60
2017-10-04T08:12:08.192Z,94.90
2017-10-04T08:13:10.683Z,95.10
2017-10-04T08:14:14.862Z,94.50
2017-10-04T08:15:17.491Z,94.40
2017-10-04T08:16:19.999Z,94.00
2017-10-04T08:17:22.609Z,94.70
2017-10-04T08:18:25.132Z,94.10
2017-10-04T08:19:27.700Z,94.30
2017-10-04T08:20:30.283Z,94.20
2017-10-04T08:21:32.839Z,94.70
2017-10-04T08:22:35.326Z,94.70
2017-10-04T08:23:38.598Z,94.70
2017-10-04T08:24:41.882Z,94.70
2017-10-04T08:25:45.195Z,94.00
2017-10-04T08:26:47.847Z,94.00
2017-10-04T08:27:51.099Z,93.50
2017-10-04T08:28:54.502Z,93.50
2017-10-04T08:29:57.072Z,93.60
2017-10-04T08:30:59.576Z,93.60
2017-10-04T08:32:02.197Z,93.10
2017-10-04T08:33:04.706Z,92.80
2017-10-04T08:34:08.465Z,92.80
2017-10-04T08:35:11.723Z,93.10
2017-10-04T08:36:14.274Z,93.10
2017-10-04T08:37:16.765Z,93.40
2017-10-04T08:38:19.276Z,92.80
2017-10-04T08:39:21.774Z,92.80
2017-10-04T08:40:24.254Z,92.20
2017-10-04T08:41:26.729Z,92.60
2017-10-04T08:42:29.339Z,92.40
2017-10-04T08:43:31.839Z,93.00
2017-10-04T08:44:34.329Z,92.10
2017-10-04T08:45:36.816Z,92.20
2017-10-04T08:46:43.055Z,90.70
2017-10-04T08:47:56.458Z,90.60
2017-10-04T08:48:59.004Z,90.00
2017-10-04T08:50:01.535Z,90.50
2017-10-04T08:51:04.019Z,88.70
2017-10-04T08:52:06.502Z,88.50
2017-10-04T08:53:09.139Z,86.00
2017-10-04T08:54:11.708Z,86.30
2017-10-04T08:55:14.223Z,85.00
2017-10-04T08:56:18.854Z,84.90
2017-10-04T08:57:22.155Z,82.90
2017-10-04T08:58:25.424Z,81.80
2017-10-04T08:59:27.915Z,81.80
2017-10-04T09:00:31.215Z,80.00
2017-10-04T09:01:33.775Z,80.00
2017-10-04T09:02:36.280Z,80.60
2017-10-04T09:03:38.809Z,80.00
2017-10-04T09:04:54.277Z,78.60
2017-10-04T09:06:03.687Z,77.70
2017-10-04T09:07:06.187Z,77.00
2017-10-04T09:08:09.422Z,75.70
2017-10-04T09:09:11.932Z,76.50
2017-10-04T09:10:15.010Z,76.10
2017-10-04T09:11:18.386Z,75.60
2017-10-04T09:12:20.874Z,75.90
2017-10-04T09:13:23.370Z,76.50
2017-10-04T09:14:25.881Z,77.70
2017-10-04T09:15:28.380Z,78.70
2017-10-04T09:16:30.883Z,79.40
2017-10-04T09:17:34.159Z,82.80
2017-10-04T09:18:37.473Z,81.80
2017-10-04T09:19:39.951Z,81.80
2017-10-04T09:20:42.450Z,83.80
2017-10-04T09:21:44.932Z,82.70
2017-10-04T09:22:47.540Z,83.80
2017-10-04T09:23:50.071Z,85.60
2017-10-04T09:24:53.283Z,86.00
2017-10-04T09:25:55.771Z,87.40
2017-10-04T09:26:58.319Z,86.80
2017-10-04T09:28:00.884Z,88.30
2017-10-04T09:29:03.375Z,90.30
2017-10-04T09:30:05.924Z,89.60
2017-10-04T09:31:08.400Z,90.20
2017-10-04T09:32:10.890Z,90.10
2017-10-04T09:33:13.370Z,90.20
2017-10-04T09:34:15.891Z,90.40
2017-10-04T09:35:18.381Z,90.70
2017-10-04T09:36:20.886Z,90.40
2017-10-04T09:37:24.191Z,90.50
2017-10-04T09:38:26.758Z,90.40
2017-10-04T09:39:29.287Z,89.50
2017-10-04T09:40:31.903Z,88.60
2017-10-04T09:41:34.411Z,89.20
2017-10-04T09:42:36.981Z,89.00
2017-10-04T09:43:39.946Z,88.60
2017-10-04T09:44:42.500Z,88.50
2017-10-04T09:45:45.000Z,87.30
2017-10-04T09:46:47.506Z,87.70
2017-10-04T09:47:50.271Z,87.80
2017-10-04T09:48:52.839Z,87.50
2017-10-04T09:49:55.409Z,88.00
2017-10-04T09:50:57.890Z,87.10
2017-10-04T09:52:00.514Z,86.50
2017-10-04T09:53:03.946Z,85.20
2017-10-04T09:54:07.483Z,85.10
2017-10-04T09:55:10.080Z,84.80
2017-10-04T09:56:12.571Z,83.80
2017-10-04T09:57:15.057Z,85.00
2017-10-04T09:58:17.592Z,84.60
2017-10-04T09:59:20.099Z,83.90
2017-10-04T10:00:29.620Z,84.20
2017-10-04T10:01:32.300Z,84.00
2017-10-04T10:02:40.546Z,84.60
2017-10-04T10:03:43.133Z,85.50
2017-10-04T10:04:45.630Z,83.80
2017-10-04T10:05:48.252Z,84.20
2017-10-04T10:06:51.938Z,85.00
2017-10-04T10:07:54.511Z,83.90
2017-10-04T10:09:04.247Z,84.30
2017-10-04T10:10:08.150Z,83.20
2017-10-04T10:11:11.982Z,82.40
2017-10-04T10:12:14.688Z,84.30
2017-10-04T10:13:20.470Z,85.10
2017-10-04T10:14:23.684Z,85.20
2017-10-04T10:15:26.269Z,85.20
2017-10-04T10:16:30.426Z,85.80
2017-10-04T10:17:34.540Z,85.20
2017-10-04T10:18:40.362Z,86.00
2017-10-04T10:19:44.172Z,86.80
2017-10-04T10:20:48.764Z,86.20
2017-10-04T10:21:52.393Z,86.20
2017-10-04T10:22:54.946Z,87.40
2017-10-04T10:23:57.569Z,87.20
2017-10-04T10:25:00.157Z,86.40
2017-10-04T10:26:02.795Z,86.50
2017-10-04T10:27:07.405Z,86.50
2017-10-04T10:28:10.742Z,86.40
2017-10-04T10:29:14.585Z,85.90
2017-10-04T10:30:18.927Z,85.70
2017-10-04T10:31:21.605Z,85.70
2017-10-04T10:32:25.524Z,86.80
2017-10-04T10:33:28.288Z,86.40
2017-10-04T10:34:31.042Z,84.70
2017-10-04T10:35:34.021Z,84.90
2017-10-04T10:36:39.119Z,83.20
2017-10-04T10:37:41.727Z,81.70
2017-10-04T10:38:45.312Z,80.90
2017-10-04T10:39:53.689Z,79.50
2017-10-04T10:40:58.626Z,80.70
2017-10-04T10:42:01.120Z,78.70
2017-10-04T10:43:03.812Z,79.70
2017-10-04T10:44:06.326Z,79.70
2017-10-04T10:45:08.898Z,80.00
2017-10-04T10:46:11.372Z,81.00
2017-10-04T10:47:13.921Z,80.70
2017-10-04T10:48:16.897Z,80.50
2017-10-04T10:49:20.391Z,81.10
2017-10-04T10:50:22.953Z,81.70
2017-10-04T10:51:25.432Z,81.60
2017-10-04T10:52:27.914Z,81.10
2017-10-04T10:53:31.426Z,82.00
2017-10-04T10:54:33.928Z,80.60
2017-10-04T10:55:36.468Z,80.10
2017-10-04T10:56:39.793Z,80.50
2017-10-04T10:57:42.706Z,80.50
2017-10-04T10:58:45.182Z,80.10
2017-10-04T10:59:47.667Z,80.40
2017-10-04T11:00:52.040Z,80.10
2017-10-04T11:01:54.631Z,80.10
2017-10-04T11:02:57.117Z,80.30
2017-10-04T11:04:00.419Z,80.20
2017-10-04T11:05:02.920Z,80.10
2017-10-04T11:06:05.504Z,79.40
2017-10-04T11:07:09.159Z,79.70
2017-10-04T11:08:11.676Z,79.70
2017-10-04T11:09:14.151Z,78.70
2017-10-04T11:10:17.411Z,79.70
2017-10-04T11:11:20.747Z,80.10
2017-10-04T11:12:23.225Z,80.10
2017-10-04T11:13:25.775Z,80.20
2017-10-04T11:14:28.280Z,80.20
2017-10-04T11:15:30.815Z,79.60
2017-10-04T11:16:33.373Z,80.00
2017-10-04T11:17:35.942Z,80.00
2017-10-04T11:18:38.452Z,79.60
2017-10-04T11:19:40.971Z,79.80
2017-10-04T11:20:43.473Z,80.40
2017-10-04T11:21:46.075Z,79.30
2017-10-04T11:22:49.386Z,79.30
2017-10-04T11:23:52.161Z,79.30
2017-10-04T11:24:54.832Z,78.50
2017-10-04T11:25:57.400Z,79.20
2017-10-04T11:26:59.893Z,79.00
2017-10-04T11:28:02.379Z,78.80
2017-10-04T11:29:04.906Z,78.40
2017-10-04T11:30:07.515Z,76.90
2017-10-04T11:31:10.000Z,75.80
2017-10-04T11:32:13.259Z,75.20
2017-10-04T11:33:15.736Z,75.10
2017-10-04T11:34:19.019Z,73.80
2017-10-04T11:35:21.524Z,73.80
2017-10-04T11:36:24.007Z,74.10
2017-10-04T11:37:26.526Z,74.40
2017-10-04T11:38:29.779Z,74.40
2017-10-04T11:39:32.291Z,74.20
2017-10-04T11:40:35.535Z,73.80
2017-10-04T11:41:38.062Z,73.80
2017-10-04T11:42:40.573Z,74.00
2017-10-04T11:43:43.906Z,73.80
2017-10-04T11:44:46.466Z,73.70
2017-10-04T11:45:48.942Z,73.50
2017-10-04T11:46:53.254Z,73.40
2017-10-04T11:47:55.748Z,73.30
2017-10-04T11:48:58.226Z,73.10
2017-10-04T11:50:00.763Z,72.60
2017-10-04T11:51:03.339Z,72.40
2017-10-04T11:52:05.847Z,72.70
2017-10-04T11:53:08.436Z,72.50
2017-10-04T11:54:10.988Z,72.90
2017-10-04T11:55:14.250Z,71.90
2017-10-04T11:56:16.724Z,71.80
2017-10-04T11:57:19.996Z,72.30
2017-10-04T11:58:22.600Z,72.20
2017-10-04T11:59:25.102Z,72.50
2017-10-04T12:00:27.593Z,71.90
2017-10-04T12:01:30.114Z,72.40
2017-10-04T12:02:33.027Z,73.00
2017-10-04T12:03:35.636Z,73.10
2017-10-04T12:04:38.245Z,73.80
2017-10-04T12:05:42.168Z,73.90
2017-10-04T12:06:45.650Z,74.00
2017-10-04T12:07:48.135Z,73.70
2017-10-04T12:08:51.395Z,73.90
2017-10-04T12:09:54.013Z,73.80
2017-10-04T12:10:56.579Z,74.30
2017-10-04T12:11:59.070Z,74.40
2017-10-04T12:13:01.598Z,75.00
2017-10-04T12:14:04.099Z,75.70
2017-10-04T12:15:06.598Z,75.50
2017-10-04T12:16:09.924Z,76.00
2017-10-04T12:17:12.415Z,76.00
2017-10-04T12:18:14.956Z,76.80
2017-10-04T12:19:17.523Z,76.80
2017-10-04T12:20:20.089Z,77.00
2017-10-04T12:21:22.757Z,76.90
2017-10-04T12:22:25.247Z,76.90
2017-10-04T12:23:27.716Z,76.90
2017-10-04T12:24:30.206Z,77.40
2017-10-04T12:25:32.703Z,77.10
2017-10-04T12:26:35.989Z,78.60
2017-10-04T12:27:39.410Z,78.10
2017-10-04T12:28:42.036Z,78.10
2017-10-04T12:29:45.461Z,78.60
2017-10-04T12:30:48.077Z,78.50
2017-10-04T12:31:50.594Z,78.50
2017-10-04T12:32:53.169Z,78.70
2017-10-04T12:33:55.669Z,77.50
2017-10-04T12:35:00.295Z,77.20
2017-10-04T12:36:02.805Z,76.50
2017-10-04T12:37:05.331Z,76.30
2017-10-04T12:38:08.602Z,75.70
2017-10-04T12:39:11.210Z,75.60
2017-10-04T12:40:13.702Z,75.90
2017-10-04T12:41:16.212Z,75.70
2017-10-04T12:42:19.523Z,74.20
2017-10-04T12:43:22.010Z,74.20
2017-10-04T12:44:24.553Z,75.10
2017-10-04T12:45:27.075Z,75.30
2017-10-04T12:46:29.590Z,75.00
2017-10-04T12:47:32.080Z,75.10
2017-10-04T12:48:34.554Z,75.10
2017-10-04T12:49:37.165Z,75.10
2017-10-04T12:50:40.437Z,75.20
2017-10-04T12:51:43.695Z,75.30
2017-10-04T12:52:46.230Z,75.20
2017-10-04T12:53:48.718Z,75.30
2017-10-04T12:54:51.196Z,75.50
2017-10-04T12:55:53.666Z,75.70
2017-10-04T12:56:56.388Z,76.20
2017-10-04T12:57:58.957Z,76.30
2017-10-04T12:59:01.466Z,76.70
2017-10-04T13:00:05.471Z,76.60
2017-10-04T13:01:09.306Z,76.60
2017-10-04T13:02:11.801Z,76.50
2017-10-04T13:03:14.354Z,76.30
2017-10-04T13:04:16.907Z,76.30
2017-10-04T13:05:19.476Z,76.30
2017-10-04T13:06:21.986Z,76.30
2017-10-04T13:07:25.302Z,76.00
2017-10-04T13:08:28.562Z,76.40
2017-10-04T13:09:31.101Z,76.40
2017-10-04T13:10:34.607Z,76.60
2017-10-04T13:11:37.098Z,76.60
2017-10-04T13:12:39.599Z,76.60
2017-10-04T13:13:42.104Z,76.40
2017-10-04T13:14:44.599Z,77.00
2017-10-04T13:15:47.912Z,78.10
2017-10-04T13:16:50.510Z,78.00
2017-10-04T13:17:53.016Z,78.40
2017-10-04T13:18:55.618Z,78.00
2017-10-04T13:19:58.103Z,78.40
2017-10-04T13:21:00.648Z,78.40
2017-10-04T13:22:03.135Z,78.20
2017-10-04T13:23:05.627Z,77.90
2017-10-04T13:24:08.113Z,77.90
2017-10-04T13:25:11.385Z,78.30
2017-10-04T13:26:14.490Z,78.30
2017-10-04T13:27:17.812Z,78.20
2017-10-04T13:28:20.453Z,78.20
2017-10-04T13:29:23.033Z,78.20
2017-10-04T13:30:25.693Z,78.30